Time;durP1;ratioP1;P1;durP2;ratioP2;P2;SDS_P1;SDS_P2;PMS_P1;PMS_P2;Temp;Humidity;BMP_temperature;BMP_pressure;BME280_temperature;BME280_humidity;BME280_pressure;Samples;Min_cycle;Max_cycle;Signal;HPM_P1;HPM_P2
2021/06/23 00:00:04;;;;;;;14.88;9.18;;;16.60;99.90;;;;;;2098089;28;20036;-68
2021/06/23 00:01:05;;;;;;;15.07;10.10;;;16.60;99.90;;;;;;2096123;28;20044;-68
2021/06/23 00:02:05;;;;;;;11.88;9.50;;;16.60;99.90;;;;;;2095367;28;20044;-68
2021/06/23 00:03:06;;;;;;;14.10;8.43;;;16.60;99.90;;;;;;2095360;28;20055;-68
2021/06/23 00:04:07;;;;;;;9.88;8.23;;;16.60;99.90;;;;;;2095776;28;20060;-68
2021/06/23 00:05:08;;;;;;;13.70;9.20;;;16.60;99.90;;;;;;2096071;28;20021;-68
2021/06/23 00:06:08;;;;;;;9.52;8.40;;;16.50;99.90;;;;;;2096312;28;20082;-68
2021/06/23 00:07:10;;;;;;;15.30;9.60;;;16.60;99.90;;;;;;2099705;28;20487;-68
2021/06/23 00:08:10;;;;;;;10.75;9.20;;;16.50;99.90;;;;;;2104600;28;20113;-68
2021/06/23 00:09:11;;;;;;;16.02;9.52;;;16.50;99.90;;;;;;2104232;28;20028;-68
2021/06/23 00:10:13;;;;;;;12.48;9.10;;;16.50;99.90;;;;;;2104414;28;20020;-68
2021/06/23 00:11:13;;;;;;;17.63;9.23;;;16.50;99.90;;;;;;2104224;28;20020;-68
2021/06/23 00:12:16;;;;;;;17.20;9.18;;;16.50;99.90;;;;;;2104121;28;20032;-68
2021/06/23 00:13:18;;;;;;;10.13;8.20;;;16.50;99.90;;;;;;2104212;28;20097;-68
2021/06/23 00:14:19;;;;;;;14.38;8.20;;;16.50;99.90;;;;;;2104601;28;20028;-68
2021/06/23 00:15:21;;;;;;;14.25;9.57;;;16.50;99.90;;;;;;2097864;28;20028;-68
2021/06/23 00:16:21;;;;;;;11.20;8.35;;;16.50;99.90;;;;;;2096289;28;20031;-68
2021/06/23 00:17:22;;;;;;;10.20;7.68;;;16.50;99.90;;;;;;2104155;28;20047;-68
2021/06/23 00:18:23;;;;;;;13.43;9.50;;;16.50;99.90;;;;;;2104509;28;20476;-68
2021/06/23 00:19:23;;;;;;;14.68;9.57;;;16.50;99.90;;;;;;2103569;28;20115;-68
2021/06/23 00:20:25;;;;;;;13.32;9.48;;;16.50;99.90;;;;;;2103732;28;20024;-68
2021/06/23 00:21:25;;;;;;;11.52;9.48;;;16.50;99.90;;;;;;2102228;28;20025;-68
2021/06/23 00:22:26;;;;;;;9.75;8.48;;;16.50;99.90;;;;;;2095907;28;20119;-68
2021/06/23 00:23:26;;;;;;;10.93;8.10;;;16.50;99.90;;;;;;2095810;28;20025;-68
2021/06/23 00:24:27;;;;;;;12.32;9.65;;;16.50;99.90;;;;;;2095213;28;20470;-68
2021/06/23 00:25:29;;;;;;;11.13;8.23;;;16.50;99.90;;;;;;2095516;28;20027;-68
2021/06/23 00:26:32;;;;;;;15.05;8.73;;;16.50;99.90;;;;;;2096001;28;20045;-68
2021/06/23 00:27:33;;;;;;;12.23;8.23;;;16.50;99.90;;;;;;2092460;28;20428;-68
2021/06/23 00:28:33;;;;;;;11.55;8.40;;;16.50;99.90;;;;;;2098606;28;20043;-68
2021/06/23 00:29:34;;;;;;;9.30;8.20;;;16.50;99.90;;;;;;2095248;28;20021;-68
2021/06/23 00:30:35;;;;;;;13.85;8.57;;;16.50;99.90;;;;;;2096202;28;20013;-68
2021/06/23 00:31:35;;;;;;;9.68;8.38;;;16.50;99.90;;;;;;2095395;28;20480;-68
2021/06/23 00:32:40;;;;;;;10.98;8.60;;;16.50;99.90;;;;;;2096060;28;20058;-68
2021/06/23 00:33:42;;;;;;;9.80;8.80;;;16.50;99.90;;;;;;2104003;28;20063;-68
2021/06/23 00:34:42;;;;;;;12.45;8.60;;;16.50;99.90;;;;;;2104328;28;20039;-68
2021/06/23 00:35:43;;;;;;;10.30;8.30;;;16.50;99.90;;;;;;2104263;28;20107;-68
2021/06/23 00:36:43;;;;;;;16.00;8.88;;;16.40;99.90;;;;;;2100952;28;20033;-68
2021/06/23 00:37:44;;;;;;;15.38;9.52;;;16.40;99.90;;;;;;2096212;28;20064;-68
2021/06/23 00:38:44;;;;;;;14.18;8.45;;;16.40;99.90;;;;;;2095812;28;20050;-68
2021/06/23 00:39:45;;;;;;;12.55;8.93;;;16.40;99.90;;;;;;2101342;28;20065;-68
2021/06/23 00:40:45;;;;;;;13.02;9.07;;;16.40;99.90;;;;;;2103626;28;20026;-68
2021/06/23 00:41:46;;;;;;;11.07;9.38;;;16.40;99.90;;;;;;2100687;28;20491;-68
2021/06/23 00:42:47;;;;;;;12.88;9.32;;;16.40;99.90;;;;;;2096112;28;20033;-68
2021/06/23 00:43:48;;;;;;;15.73;8.20;;;16.40;99.90;;;;;;2095997;28;20353;-68
2021/06/23 00:44:49;;;;;;;13.18;9.02;;;16.40;99.90;;;;;;2096108;28;20021;-68
2021/06/23 00:45:50;;;;;;;12.77;8.43;;;16.40;99.90;;;;;;2096097;28;20016;-68
2021/06/23 00:46:51;;;;;;;11.23;8.00;;;16.40;99.90;;;;;;2095500;28;20028;-68
2021/06/23 00:47:53;;;;;;;14.85;9.32;;;16.40;99.90;;;;;;2102109;28;20028;-68
2021/06/23 00:48:56;;;;;;;11.57;8.07;;;16.40;99.90;;;;;;2104089;28;20016;-68
2021/06/23 00:49:58;;;;;;;11.98;8.07;;;16.40;99.90;;;;;;2104676;28;20020;-68
2021/06/23 00:51:01;;;;;;;13.07;8.40;;;16.40;99.90;;;;;;2104212;28;20232;-68
2021/06/23 00:52:03;;;;;;;14.75;8.52;;;16.40;99.90;;;;;;2103866;28;20027;-68
2021/06/23 00:53:04;;;;;;;10.80;8.90;;;16.40;99.90;;;;;;2104256;28;20250;-68
2021/06/23 00:54:11;;;;;;;13.65;9.10;;;16.40;99.90;;;;;;2104539;28;20020;-68
2021/06/23 00:55:20;;;;;;;12.05;8.85;;;16.40;99.90;;;;;;2104430;28;20039;-68
2021/06/23 00:56:33;;;;;;;11.38;9.25;;;16.40;99.90;;;;;;2087737;28;20094;-68
2021/06/23 00:57:34;;;;;;;10.55;8.27;;;16.40;99.90;;;;;;2096934;28;20031;-68
2021/06/23 00:58:35;;;;;;;12.10;8.40;;;16.40;99.90;;;;;;2096151;28;20024;-68
2021/06/23 00:59:35;;;;;;;9.45;7.70;;;16.30;99.90;;;;;;2095989;28;20024;-67
2021/06/23 01:00:36;;;;;;;13.38;8.82;;;16.40;99.90;;;;;;2096921;28;20029;-67
2021/06/23 01:01:42;;;;;;;13.43;9.10;;;16.40;99.90;;;;;;2095175;28;20025;-68
2021/06/23 01:02:43;;;;;;;14.98;9.77;;;16.40;99.90;;;;;;2104040;28;20020;-68
2021/06/23 01:03:44;;;;;;;10.20;8.80;;;16.40;99.90;;;;;;2104305;28;20052;-68
2021/06/23 01:04:46;;;;;;;11.02;8.02;;;16.30;99.90;;;;;;2104400;28;20520;-68
2021/06/23 01:05:48;;;;;;;11.35;8.57;;;16.30;99.90;;;;;;2103863;28;20027;-68
2021/06/23 01:06:49;;;;;;;14.10;8.55;;;16.30;99.90;;;;;;2100934;28;20032;-68
2021/06/23 01:07:50;;;;;;;12.60;9.45;;;16.30;99.90;;;;;;2096072;28;20029;-68
2021/06/23 01:08:51;;;;;;;10.18;8.23;;;16.30;99.90;;;;;;2095898;28;20066;-67
2021/06/23 01:09:57;;;;;;;10.93;8.48;;;16.30;99.90;;;;;;2095793;28;20095;-68
2021/06/23 01:10:58;;;;;;;14.68;8.40;;;16.30;99.90;;;;;;2096200;28;20175;-68
2021/06/23 01:12:15;;;;;;;15.30;8.07;;;16.30;99.90;;;;;;2095228;28;20070;-68
2021/06/23 01:13:34;;;;;;;10.82;7.85;;;16.30;99.90;;;;;;2096250;28;20032;-68
2021/06/23 01:14:37;;;;;;;13.18;9.07;;;16.20;99.90;;;;;;2096134;28;20419;-68
2021/06/23 01:15:40;;;;;;;11.45;7.68;;;16.20;99.90;;;;;;2096119;28;20023;-68
2021/06/23 01:16:41;;;;;;;9.57;7.55;;;16.20;99.90;;;;;;2095565;28;20042;-68
2021/06/23 01:17:41;;;;;;;17.15;8.57;;;16.20;99.90;;;;;;2096045;28;20043;-68
2021/06/23 01:18:59;;;;;;;11.90;7.63;;;16.20;99.90;;;;;;2095969;28;20100;-68
2021/06/23 01:20:08;;;;;;;10.35;7.75;;;16.20;99.90;;;;;;2097107;28;20032;-68
2021/06/23 01:21:09;;;;;;;11.95;7.88;;;16.20;99.90;;;;;;2087755;28;20029;-68
2021/06/23 01:22:11;;;;;;;10.55;7.75;;;16.20;99.90;;;;;;2095537;28;20403;-68
2021/06/23 01:23:13;;;;;;;13.55;8.45;;;16.20;99.90;;;;;;2095718;28;20031;-67
2021/06/23 01:24:14;;;;;;;13.77;8.20;;;16.20;99.90;;;;;;2095865;28;20023;-68
2021/06/23 01:25:16;;;;;;;12.45;8.55;;;16.10;99.90;;;;;;2095896;28;20033;-68
2021/06/23 01:26:16;;;;;;;13.82;9.13;;;16.20;99.90;;;;;;2095529;28;20483;-68
2021/06/23 01:27:17;;;;;;;11.82;7.50;;;16.20;99.90;;;;;;2095563;28;20108;-68
2021/06/23 01:28:18;;;;;;;14.52;7.70;;;16.10;99.90;;;;;;2095276;28;20021;-68
2021/06/23 01:29:18;;;;;;;19.67;8.85;;;16.10;99.90;;;;;;2095938;28;20573;-68
2021/06/23 01:30:19;;;;;;;10.70;8.18;;;16.20;99.90;;;;;;2095736;28;20422;-68
2021/06/23 01:31:21;;;;;;;10.35;9.35;;;16.10;99.90;;;;;;2096137;28;20025;-68
2021/06/23 01:32:21;;;;;;;13.68;8.52;;;16.10;99.90;;;;;;2096339;28;20094;-68
2021/06/23 01:33:24;;;;;;;17.15;8.90;;;16.10;99.90;;;;;;2097379;28;20024;-68
2021/06/23 01:34:25;;;;;;;13.38;8.40;;;16.10;99.90;;;;;;2097247;28;20023;-68
2021/06/23 01:35:28;;;;;;;14.70;9.05;;;16.10;99.90;;;;;;2097591;28;20017;-68
2021/06/23 01:36:30;;;;;;;16.63;9.30;;;16.00;99.90;;;;;;2096681;28;20036;-68
2021/06/23 01:37:31;;;;;;;11.93;8.57;;;16.00;99.90;;;;;;2097758;28;20017;-68
2021/06/23 01:38:31;;;;;;;12.73;8.88;;;16.00;99.90;;;;;;2098085;28;20539;-67
2021/06/23 01:39:32;;;;;;;12.63;8.45;;;16.00;99.90;;;;;;2097160;28;20020;-68
2021/06/23 01:40:32;;;;;;;12.65;8.52;;;16.00;99.90;;;;;;2096600;28;20031;-68
2021/06/23 01:41:33;;;;;;;12.45;8.80;;;16.00;99.90;;;;;;2098299;28;20072;-68
2021/06/23 01:42:34;;;;;;;13.60;8.32;;;16.00;99.90;;;;;;2099205;28;20028;-68
2021/06/23 01:43:35;;;;;;;13.73;9.40;;;16.00;99.90;;;;;;2105246;28;20360;-68
2021/06/23 01:44:36;;;;;;;14.20;8.77;;;16.00;99.90;;;;;;2100715;28;20044;-68
2021/06/23 01:45:37;;;;;;;16.70;10.10;;;16.00;99.90;;;;;;2097017;28;20055;-68
2021/06/23 01:46:37;;;;;;;12.57;8.25;;;16.00;99.90;;;;;;2097409;28;20403;-67
2021/06/23 01:47:38;;;;;;;10.55;7.63;;;16.00;99.90;;;;;;2100793;28;20107;-67
2021/06/23 01:48:38;;;;;;;13.55;8.60;;;16.00;99.90;;;;;;2103536;28;20040;-68
2021/06/23 01:49:40;;;;;;;13.10;8.70;;;16.00;99.90;;;;;;2097578;28;20379;-68
2021/06/23 01:50:41;;;;;;;11.02;7.93;;;16.00;99.90;;;;;;2097094;28;20017;-67
2021/06/23 01:51:41;;;;;;;11.23;7.38;;;16.00;99.90;;;;;;2096636;28;20020;-67
2021/06/23 01:52:42;;;;;;;13.65;8.20;;;16.00;99.90;;;;;;2097006;28;20025;-68
2021/06/23 01:53:43;;;;;;;15.98;8.73;;;16.10;99.90;;;;;;2097468;28;20025;-68
2021/06/23 01:54:44;;;;;;;13.57;8.25;;;16.10;99.90;;;;;;2097138;28;20021;-68
2021/06/23 01:55:47;;;;;;;14.85;7.97;;;16.10;99.90;;;;;;2097425;28;20055;-67
2021/06/23 01:56:48;;;;;;;13.48;7.47;;;16.10;99.90;;;;;;2096799;28;20040;-68
2021/06/23 01:57:50;;;;;;;11.07;7.43;;;16.10;99.90;;;;;;2089868;28;20508;-68
2021/06/23 01:58:50;;;;;;;12.52;8.63;;;16.10;99.90;;;;;;2091114;28;20047;-67
2021/06/23 01:59:51;;;;;;;14.27;8.27;;;16.10;99.90;;;;;;2097301;28;20078;-67
2021/06/23 02:01:20;;;;;;;14.10;8.73;;;16.10;99.90;;;;;;2097509;28;20024;-67
2021/06/23 02:02:26;;;;;;;8.18;7.20;;;16.10;99.90;;;;;;2096626;28;20044;-67
2021/06/23 02:03:33;;;;;;;12.00;8.20;;;16.00;99.90;;;;;;2097962;28;20017;-68
2021/06/23 02:04:55;;;;;;;11.15;8.20;;;16.00;99.90;;;;;;2090247;28;20021;-67
2021/06/23 02:06:04;;;;;;;13.43;9.23;;;16.00;99.90;;;;;;2105006;28;20023;-67
2021/06/23 02:07:36;;;;;;;14.85;7.70;;;16.00;99.90;;;;;;2106423;28;20085;-67
2021/06/23 02:08:45;;;;;;;12.15;8.50;;;16.00;99.90;;;;;;2106785;28;20401;-68
2021/06/23 02:10:11;;;;;;;10.85;8.32;;;16.00;99.90;;;;;;2106405;28;20024;-68
2021/06/23 02:11:47;;;;;;;15.13;8.77;;;16.00;99.90;;;;;;2106837;28;20028;-67
2021/06/23 02:13:39;;;;;;;14.32;8.52;;;16.00;99.90;;;;;;2106851;28;20020;-67
2021/06/23 02:14:42;;;;;;;12.98;8.63;;;16.00;99.90;;;;;;2097992;28;20471;-67
2021/06/23 02:15:44;;;;;;;14.85;8.70;;;15.90;99.90;;;;;;2106239;28;20020;-67
2021/06/23 02:16:47;;;;;;;20.05;8.05;;;16.00;99.90;;;;;;2106752;28;20020;-67
2021/06/23 02:17:49;;;;;;;12.65;8.27;;;16.00;99.90;;;;;;2106457;28;20372;-67
2021/06/23 02:18:49;;;;;;;17.95;8.93;;;16.00;99.90;;;;;;2106906;28;20064;-67
2021/06/23 02:19:51;;;;;;;14.32;8.98;;;16.00;99.90;;;;;;2106487;28;20111;-67
2021/06/23 02:20:56;;;;;;;14.52;8.68;;;16.00;99.90;;;;;;2106761;28;20111;-67
2021/06/23 02:21:57;;;;;;;13.45;8.27;;;16.00;99.90;;;;;;2099609;28;20028;-67
2021/06/23 02:22:57;;;;;;;13.40;8.88;;;16.00;99.90;;;;;;2098375;28;20035;-67
2021/06/23 02:23:59;;;;;;;11.43;8.23;;;16.00;99.90;;;;;;2097537;28;20047;-68
2021/06/23 02:25:07;;;;;;;22.00;9.23;;;16.00;99.90;;;;;;2102805;28;20020;-68
2021/06/23 02:26:08;;;;;;;13.18;8.25;;;16.00;99.90;;;;;;2106373;28;20031;-67
2021/06/23 02:27:09;;;;;;;12.70;7.32;;;16.00;99.90;;;;;;2106259;28;20025;-67
2021/06/23 02:28:10;;;;;;;13.00;9.13;;;16.00;99.90;;;;;;2098093;28;20025;-67
2021/06/23 02:29:11;;;;;;;19.95;8.40;;;16.00;99.90;;;;;;2098253;28;20024;-67
2021/06/23 02:30:13;;;;;;;13.55;8.38;;;16.00;99.90;;;;;;2098115;28;20430;-67
2021/06/23 02:31:14;;;;;;;17.27;7.80;;;16.00;99.90;;;;;;2098349;28;20384;-67
2021/06/23 02:32:17;;;;;;;13.43;7.65;;;16.00;99.90;;;;;;2097323;28;20029;-67
2021/06/23 02:33:19;;;;;;;13.50;8.18;;;16.00;99.90;;;;;;2098295;28;20070;-67
2021/06/23 02:34:20;;;;;;;11.13;8.23;;;15.90;99.90;;;;;;2098955;28;20082;-67
2021/06/23 02:35:24;;;;;;;11.20;8.13;;;15.90;99.90;;;;;;2106704;28;20016;-67
2021/06/23 02:36:26;;;;;;;14.80;9.13;;;15.90;99.90;;;;;;2106150;28;20348;-67
2021/06/23 02:37:26;;;;;;;13.82;8.63;;;15.90;99.90;;;;;;2106815;28;20068;-67
2021/06/23 02:38:27;;;;;;;11.20;7.65;;;15.90;99.90;;;;;;2106353;28;20531;-67
2021/06/23 02:39:28;;;;;;;13.43;7.90;;;15.90;99.90;;;;;;2106688;28;20027;-68
2021/06/23 02:40:30;;;;;;;16.90;8.15;;;15.90;99.90;;;;;;2106403;28;20437;-67
2021/06/23 02:41:31;;;;;;;11.70;8.70;;;15.90;99.90;;;;;;2106235;28;20028;-68
2021/06/23 02:42:33;;;;;;;14.75;8.23;;;15.90;99.90;;;;;;2106276;28;20621;-67
2021/06/23 02:43:34;;;;;;;13.48;8.73;;;15.80;99.90;;;;;;2104539;28;20194;-67
2021/06/23 02:44:35;;;;;;;13.10;8.68;;;15.80;99.90;;;;;;2097848;28;20029;-67
2021/06/23 02:45:36;;;;;;;12.82;8.77;;;15.80;99.90;;;;;;2097525;28;20024;-67
2021/06/23 02:46:36;;;;;;;21.25;8.98;;;15.90;99.90;;;;;;2098197;28;20028;-67
2021/06/23 02:47:37;;;;;;;11.27;8.68;;;15.80;99.90;;;;;;2098293;28;20025;-67
2021/06/23 02:48:39;;;;;;;19.67;9.43;;;15.80;99.90;;;;;;2098039;28;20051;-67
2021/06/23 02:49:40;;;;;;;11.52;8.15;;;15.80;99.90;;;;;;2098214;28;20027;-67
2021/06/23 02:51:09;;;;;;;18.38;8.73;;;15.80;99.90;;;;;;2098088;28;20485;-68
2021/06/23 02:52:11;;;;;;;11.88;7.70;;;15.80;99.90;;;;;;2097736;28;20379;-67
2021/06/23 02:53:12;;;;;;;13.50;7.72;;;15.80;99.90;;;;;;2097815;28;20120;-67
2021/06/23 02:54:13;;;;;;;15.52;8.98;;;15.80;99.90;;;;;;2102095;28;20024;-67
2021/06/23 02:55:19;;;;;;;16.23;8.77;;;15.80;99.90;;;;;;2106399;28;20053;-67
2021/06/23 02:56:21;;;;;;;14.10;8.13;;;15.80;99.90;;;;;;2090024;28;20033;-67
2021/06/23 02:57:21;;;;;;;16.08;8.07;;;15.80;99.90;;;;;;2093062;28;20451;-67
2021/06/23 02:58:22;;;;;;;11.25;7.70;;;15.80;99.90;;;;;;2098155;28;20403;-67
2021/06/23 02:59:24;;;;;;;14.63;8.00;;;15.80;99.90;;;;;;2097919;28;20059;-67
2021/06/23 03:00:24;;;;;;;13.60;7.68;;;15.80;99.90;;;;;;2098241;28;20086;-67
2021/06/23 03:01:25;;;;;;;15.93;7.88;;;15.80;99.90;;;;;;2097320;28;20149;-67
2021/06/23 03:02:26;;;;;;;12.82;7.90;;;15.80;99.90;;;;;;2096227;28;20540;-67
2021/06/23 03:03:26;;;;;;;11.35;8.07;;;15.90;99.90;;;;;;2096715;28;20047;-67
2021/06/23 03:04:27;;;;;;;14.23;9.25;;;15.90;99.90;;;;;;2097029;28;20025;-67
2021/06/23 03:05:28;;;;;;;13.90;7.82;;;15.80;99.90;;;;;;2100298;28;20039;-67
2021/06/23 03:06:29;;;;;;;12.27;9.65;;;15.80;99.90;;;;;;2104760;28;20121;-67
2021/06/23 03:07:29;;;;;;;13.38;8.77;;;15.90;99.90;;;;;;2104767;28;20032;-67
2021/06/23 03:08:31;;;;;;;13.60;7.93;;;15.90;99.90;;;;;;2105308;28;20097;-67
2021/06/23 03:09:31;;;;;;;11.88;8.25;;;15.80;99.90;;;;;;2105119;28;20075;-67
2021/06/23 03:10:32;;;;;;;13.35;8.30;;;15.80;99.90;;;;;;2105452;28;20433;-67
2021/06/23 03:11:38;;;;;;;16.52;8.90;;;15.80;99.90;;;;;;2104583;28;20376;-67
2021/06/23 03:12:39;;;;;;;13.77;8.60;;;15.80;99.90;;;;;;2104352;28;20024;-67
2021/06/23 03:13:39;;;;;;;12.63;8.48;;;15.80;99.90;;;;;;2103747;28;20020;-67
2021/06/23 03:14:40;;;;;;;13.25;8.70;;;15.80;99.90;;;;;;2096710;28;20036;-67
2021/06/23 03:15:41;;;;;;;12.50;8.23;;;15.80;99.90;;;;;;2096538;28;20039;-67
2021/06/23 03:16:42;;;;;;;12.60;7.95;;;15.80;99.90;;;;;;2096387;28;20035;-67
2021/06/23 03:17:42;;;;;;;13.20;8.45;;;15.80;99.90;;;;;;2096700;28;20059;-67
2021/06/23 03:18:43;;;;;;;11.77;7.13;;;15.80;99.90;;;;;;2096389;28;20521;-67
2021/06/23 03:19:43;;;;;;;11.93;7.38;;;15.80;99.90;;;;;;2096116;28;20078;-67
2021/06/23 03:20:44;;;;;;;14.43;7.25;;;15.80;99.90;;;;;;2105010;28;20039;-67
2021/06/23 03:21:45;;;;;;;14.85;8.77;;;15.80;99.90;;;;;;2098771;28;20051;-67
2021/06/23 03:22:45;;;;;;;16.08;7.85;;;15.80;99.90;;;;;;2101867;28;20027;-67
2021/06/23 03:23:47;;;;;;;13.02;8.23;;;15.80;99.90;;;;;;2096505;28;20131;-67
2021/06/23 03:24:49;;;;;;;14.88;8.23;;;15.80;99.90;;;;;;2099473;28;20420;-67
2021/06/23 03:25:49;;;;;;;11.63;8.00;;;15.80;99.90;;;;;;2104671;28;20022;-67
2021/06/23 03:26:50;;;;;;;19.05;9.38;;;15.80;99.90;;;;;;2104837;28;20047;-67
2021/06/23 03:27:55;;;;;;;15.95;8.40;;;15.80;99.90;;;;;;2098346;28;20009;-67
2021/06/23 03:28:56;;;;;;;18.00;8.57;;;15.80;99.90;;;;;;2095509;28;20078;-67
2021/06/23 03:29:56;;;;;;;15.80;8.55;;;15.80;99.90;;;;;;2096541;28;20046;-67
2021/06/23 03:30:57;;;;;;;9.70;7.72;;;15.80;99.90;;;;;;2096253;28;20160;-67
2021/06/23 03:31:59;;;;;;;11.90;8.07;;;15.80;99.90;;;;;;2096078;28;20027;-67
2021/06/23 03:33:00;;;;;;;14.98;7.55;;;15.80;99.90;;;;;;2096097;28;20028;-67
2021/06/23 03:34:00;;;;;;;12.15;7.93;;;15.90;99.90;;;;;;2096170;28;20025;-68
2021/06/23 03:35:01;;;;;;;16.73;9.32;;;15.80;99.90;;;;;;2103808;28;20031;-67
2021/06/23 03:36:01;;;;;;;17.27;9.10;;;15.90;99.90;;;;;;2105043;28;20035;-67
2021/06/23 03:37:03;;;;;;;19.58;9.18;;;15.90;99.90;;;;;;2104674;28;20056;-67
2021/06/23 03:38:03;;;;;;;13.75;7.25;;;15.90;99.90;;;;;;2104901;28;20028;-67
2021/06/23 03:39:04;;;;;;;15.48;8.45;;;15.90;99.90;;;;;;2103702;28;20958;-67
2021/06/23 03:40:05;;;;;;;15.30;9.18;;;15.90;99.90;;;;;;2104324;28;20580;-67
2021/06/23 03:41:06;;;;;;;12.40;8.35;;;15.90;99.90;;;;;;2104576;28;20043;-68
2021/06/23 03:42:07;;;;;;;13.73;7.93;;;15.90;99.90;;;;;;2104543;28;20487;-67
2021/06/23 03:43:07;;;;;;;15.95;8.98;;;15.90;99.90;;;;;;2104517;28;20463;-67
2021/06/23 03:44:08;;;;;;;11.90;7.88;;;15.90;99.90;;;;;;2100516;28;20535;-67
2021/06/23 03:45:09;;;;;;;13.93;8.38;;;15.80;99.90;;;;;;2096378;28;20020;-67
2021/06/23 03:46:10;;;;;;;23.50;8.98;;;15.80;99.90;;;;;;2096794;28;20043;-67
2021/06/23 03:47:11;;;;;;;12.95;8.23;;;15.80;99.90;;;;;;2095411;28;20013;-67
2021/06/23 03:48:13;;;;;;;14.50;9.40;;;15.80;99.90;;;;;;2095786;28;20017;-67
2021/06/23 03:49:14;;;;;;;13.55;7.50;;;15.80;99.90;;;;;;2096284;28;20060;-67
2021/06/23 03:50:16;;;;;;;10.68;8.02;;;15.80;99.90;;;;;;2096788;28;20029;-67
2021/06/23 03:51:17;;;;;;;15.25;9.02;;;15.80;99.90;;;;;;2095607;28;20105;-67
2021/06/23 03:52:17;;;;;;;18.10;8.48;;;15.80;99.90;;;;;;2095302;28;20031;-67
2021/06/23 03:53:18;;;;;;;10.07;8.45;;;15.80;99.90;;;;;;2096329;28;20029;-67
2021/06/23 03:54:18;;;;;;;12.10;8.15;;;15.80;99.90;;;;;;2095935;28;20094;-67
2021/06/23 03:55:19;;;;;;;15.13;8.20;;;15.80;99.90;;;;;;2095956;28;20357;-68
2021/06/23 03:56:20;;;;;;;11.82;8.15;;;15.80;99.90;;;;;;2096576;28;20040;-67
2021/06/23 03:57:21;;;;;;;13.43;8.65;;;15.80;99.90;;;;;;2096089;28;20021;-67
2021/06/23 03:58:21;;;;;;;14.48;8.25;;;15.80;99.90;;;;;;2096164;28;20027;-67
2021/06/23 03:59:22;;;;;;;18.00;8.40;;;15.80;99.90;;;;;;2096316;28;20032;-67
2021/06/23 04:00:27;;;;;;;16.92;9.38;;;15.70;99.90;;;;;;2096199;28;20384;-67
2021/06/23 04:01:28;;;;;;;13.68;9.20;;;15.70;99.90;;;;;;2096250;28;20028;-67
2021/06/23 04:02:29;;;;;;;11.77;7.70;;;15.80;99.90;;;;;;2095861;28;20052;-67
2021/06/23 04:03:29;;;;;;;11.98;7.72;;;15.80;99.90;;;;;;2096193;28;20033;-67
2021/06/23 04:04:30;;;;;;;17.88;8.50;;;15.80;99.90;;;;;;2096082;28;20028;-67
2021/06/23 04:05:30;;;;;;;13.15;8.38;;;15.80;99.90;;;;;;2100420;28;20066;-67
2021/06/23 04:06:31;;;;;;;17.52;8.05;;;15.70;99.90;;;;;;2104449;28;20035;-67
2021/06/23 04:07:32;;;;;;;13.85;8.18;;;15.80;99.90;;;;;;2104272;28;20103;-67
2021/06/23 04:08:32;;;;;;;13.13;8.73;;;15.80;99.90;;;;;;2104465;28;20040;-67
2021/06/23 04:09:33;;;;;;;15.30;8.63;;;15.80;99.90;;;;;;2104706;28;20383;-67
2021/06/23 04:10:33;;;;;;;11.80;9.35;;;15.80;99.90;;;;;;2104484;28;20483;-67
2021/06/23 04:11:34;;;;;;;16.85;8.52;;;15.80;99.90;;;;;;2104061;28;20530;-68
2021/06/23 04:12:35;;;;;;;16.77;8.65;;;15.80;99.90;;;;;;2104474;28;20016;-67
2021/06/23 04:13:35;;;;;;;14.65;8.93;;;15.80;99.90;;;;;;2104453;28;20456;-67
2021/06/23 04:14:37;;;;;;;11.05;8.70;;;15.80;99.90;;;;;;2096800;28;20017;-67
2021/06/23 04:15:37;;;;;;;8.60;7.63;;;15.80;99.90;;;;;;2096512;28;20040;-67
2021/06/23 04:16:38;;;;;;;18.73;9.02;;;15.80;99.90;;;;;;2095998;28;20507;-67
2021/06/23 04:17:39;;;;;;;14.80;10.13;;;15.80;99.90;;;;;;2096096;28;20071;-67
2021/06/23 04:18:40;;;;;;;11.55;8.60;;;15.80;99.90;;;;;;2096081;28;20036;-67
2021/06/23 04:19:40;;;;;;;11.20;8.20;;;15.80;99.90;;;;;;2096162;28;20490;-67
2021/06/23 04:20:41;;;;;;;15.85;9.10;;;15.80;99.90;;;;;;2096270;28;20032;-67
2021/06/23 04:21:41;;;;;;;11.45;8.70;;;15.80;99.90;;;;;;2095561;28;20388;-67
2021/06/23 04:22:42;;;;;;;10.30;8.90;;;15.80;99.90;;;;;;2096076;28;20115;-67
2021/06/23 04:23:43;;;;;;;13.85;9.40;;;15.80;99.90;;;;;;2096403;28;20033;-67
2021/06/23 04:24:44;;;;;;;12.50;8.02;;;15.80;99.90;;;;;;2098112;28;20028;-67
2021/06/23 04:25:44;;;;;;;14.63;8.77;;;15.80;99.90;;;;;;2101062;28;20471;-67
2021/06/23 04:26:45;;;;;;;13.88;8.57;;;15.80;99.90;;;;;;2095805;28;20033;-67
2021/06/23 04:27:46;;;;;;;13.90;8.10;;;15.80;99.90;;;;;;2095694;28;20079;-67
2021/06/23 04:28:46;;;;;;;13.18;8.10;;;15.80;99.90;;;;;;2095498;28;20055;-67
2021/06/23 04:29:48;;;;;;;17.23;9.00;;;15.70;99.90;;;;;;2096388;28;20375;-67
2021/06/23 04:30:48;;;;;;;16.20;8.90;;;15.80;99.90;;;;;;2096872;28;20113;-67
2021/06/23 04:31:49;;;;;;;11.60;8.70;;;15.80;99.90;;;;;;2095355;28;20021;-67
2021/06/23 04:32:49;;;;;;;18.38;9.25;;;15.80;99.90;;;;;;2091884;28;20079;-67
2021/06/23 04:33:50;;;;;;;16.80;8.75;;;15.80;99.90;;;;;;2090435;28;20063;-67
2021/06/23 04:34:50;;;;;;;16.85;8.45;;;15.80;99.90;;;;;;2101157;28;20383;-67
2021/06/23 04:35:51;;;;;;;13.10;9.02;;;15.80;99.90;;;;;;2093847;28;20029;-67
2021/06/23 04:36:52;;;;;;;13.65;8.90;;;15.80;99.90;;;;;;2097911;28;20024;-67
2021/06/23 04:37:53;;;;;;;12.13;8.45;;;15.80;99.90;;;;;;2095425;28;20031;-67
2021/06/23 04:38:53;;;;;;;17.05;8.82;;;15.80;99.90;;;;;;2087685;28;20055;-67
2021/06/23 04:39:54;;;;;;;16.52;9.00;;;15.80;99.90;;;;;;2089000;28;20049;-67
2021/06/23 04:40:54;;;;;;;14.15;8.90;;;15.80;99.90;;;;;;2089480;28;20029;-67
2021/06/23 04:41:55;;;;;;;14.10;9.10;;;15.80;99.90;;;;;;2087772;28;20091;-67
2021/06/23 04:42:55;;;;;;;12.73;7.50;;;15.80;99.90;;;;;;2089810;28;20032;-67
2021/06/23 04:43:56;;;;;;;16.40;9.25;;;15.80;99.90;;;;;;2088486;28;20046;-67
2021/06/23 04:44:57;;;;;;;16.40;8.30;;;15.80;99.90;;;;;;2091340;28;20468;-67
2021/06/23 04:45:57;;;;;;;14.55;8.85;;;15.80;99.90;;;;;;2090523;28;20028;-67
2021/06/23 04:46:58;;;;;;;19.30;9.77;;;15.80;99.90;;;;;;2090272;28;20043;-67
2021/06/23 04:47:59;;;;;;;14.60;7.95;;;15.90;99.90;;;;;;2090359;28;20603;-67
2021/06/23 04:49:00;;;;;;;9.88;7.80;;;15.80;99.90;;;;;;2089125;28;20037;-67
2021/06/23 04:50:01;;;;;;;13.88;8.77;;;15.90;99.90;;;;;;2089269;28;20028;-67
2021/06/23 04:51:02;;;;;;;15.90;9.00;;;15.90;99.90;;;;;;2090526;28;20053;-67
2021/06/23 04:52:03;;;;;;;13.13;8.45;;;15.90;99.90;;;;;;2087140;28;20106;-67
2021/06/23 04:53:04;;;;;;;16.70;8.80;;;15.90;99.90;;;;;;2087976;28;20025;-67
2021/06/23 04:54:05;;;;;;;13.30;8.52;;;15.90;99.90;;;;;;2087912;28;20036;-67
2021/06/23 04:55:07;;;;;;;17.38;9.68;;;15.90;99.90;;;;;;2087690;28;20099;-67
2021/06/23 04:56:07;;;;;;;24.23;8.90;;;15.90;99.90;;;;;;2091003;28;20485;-67
2021/06/23 04:57:08;;;;;;;12.05;8.80;;;15.90;99.90;;;;;;2088455;28;20099;-67
2021/06/23 04:58:09;;;;;;;12.38;8.13;;;15.90;99.90;;;;;;2089879;28;20032;-67
2021/06/23 04:59:09;;;;;;;14.23;8.27;;;15.90;99.90;;;;;;2090462;28;20040;-67
2021/06/23 05:00:11;;;;;;;13.38;8.70;;;15.90;99.90;;;;;;2089936;28;20041;-68
2021/06/23 05:01:12;;;;;;;14.57;8.77;;;15.90;99.90;;;;;;2094775;28;20021;-67
2021/06/23 05:02:14;;;;;;;12.32;8.23;;;15.90;99.90;;;;;;2087053;28;20025;-67
2021/06/23 05:03:14;;;;;;;14.38;8.77;;;15.90;99.90;;;;;;2089317;28;20032;-67
2021/06/23 05:04:15;;;;;;;12.98;8.02;;;15.90;99.90;;;;;;2095832;28;20060;-67
2021/06/23 05:05:15;;;;;;;16.00;8.20;;;15.90;99.90;;;;;;2100051;28;20016;-67
2021/06/23 05:06:16;;;;;;;16.73;8.55;;;15.90;99.90;;;;;;2096924;28;20012;-67
2021/06/23 05:07:17;;;;;;;16.42;8.25;;;16.00;99.90;;;;;;2097592;28;20023;-67
2021/06/23 05:08:17;;;;;;;16.33;8.20;;;16.00;99.90;;;;;;2102064;28;20016;-67
2021/06/23 05:09:18;;;;;;;16.23;7.65;;;16.00;99.90;;;;;;2099076;28;20017;-67
2021/06/23 05:10:19;;;;;;;13.88;8.40;;;16.00;99.90;;;;;;2102212;28;20020;-67
2021/06/23 05:11:19;;;;;;;13.02;8.00;;;16.00;99.90;;;;;;2101930;28;20021;-67
2021/06/23 05:12:22;;;;;;;11.07;7.93;;;16.10;99.90;;;;;;2099659;28;20535;-67
2021/06/23 05:13:23;;;;;;;11.02;7.68;;;16.10;99.90;;;;;;2101968;28;20088;-67
2021/06/23 05:14:23;;;;;;;13.07;8.20;;;16.10;99.90;;;;;;2097639;28;20013;-67
2021/06/23 05:15:24;;;;;;;10.60;7.65;;;16.10;99.90;;;;;;2099444;28;20162;-67
2021/06/23 05:16:26;;;;;;;16.50;8.32;;;16.10;99.90;;;;;;2099490;28;20046;-67
2021/06/23 05:17:27;;;;;;;12.48;8.18;;;16.10;99.90;;;;;;2100018;28;20051;-67
2021/06/23 05:18:29;;;;;;;10.93;7.90;;;16.10;99.90;;;;;;2102380;28;20107;-67
2021/06/23 05:19:30;;;;;;;12.55;8.65;;;16.10;99.90;;;;;;2101885;28;20440;-67